createdAt,value
2018-02-18T00:02:21.839Z,102187.80
2018-02-18T00:04:48.639Z,102192.75
2018-02-18T00:07:15.255Z,102188.31
2018-02-18T00:09:42.180Z,102193.61
2018-02-18T00:12:07.955Z,102193.99
2018-02-18T00:14:37.694Z,102193.87
2018-02-18T00:17:03.503Z,102194.30
2018-02-18T00:19:29.351Z,102195.84
2018-02-18T00:21:55.155Z,102200.06
2018-02-18T00:24:21.968Z,102204.62
2018-02-18T00:26:48.669Z,102198.65
2018-02-18T00:29:14.463Z,102202.39
2018-02-18T00:31:40.271Z,102202.63
2018-02-18T00:34:06.092Z,102214.61
2018-02-18T00:36:32.854Z,102214.43
2018-02-18T00:38:58.646Z,102216.14
2018-02-18T00:41:24.474Z,102227.66
2018-02-18T00:43:50.275Z,102219.27
2018-02-18T00:46:17.078Z,102222.09
2018-02-18T00:48:42.871Z,102220.19
2018-02-18T00:51:09.613Z,102225.49
2018-02-18T00:53:35.406Z,102225.77
2018-02-18T00:56:01.998Z,102227.04
2018-02-18T00:58:27.834Z,102231.88
2018-02-18T01:00:54.451Z,102233.52
2018-02-18T01:03:21.252Z,102232.52
2018-02-18T01:05:47.039Z,102230.90
2018-02-18T01:08:13.743Z,102238.82
2018-02-18T01:10:39.533Z,102234.03
2018-02-18T01:13:06.220Z,102234.80
2018-02-18T01:15:32.066Z,102234.33
2018-02-18T01:17:58.746Z,102235.24
2018-02-18T01:20:25.449Z,102240.09
2018-02-18T01:22:52.276Z,102244.39
2018-02-18T01:25:18.074Z,102247.48
2018-02-18T01:27:44.747Z,102244.30
2018-02-18T01:30:11.498Z,102243.61
2018-02-18T01:32:38.291Z,102245.73
2018-02-18T01:35:04.140Z,102241.55
2018-02-18T01:37:29.939Z,102239.73
2018-02-18T01:39:55.775Z,102238.36
2018-02-18T01:42:21.572Z,102239.58
2018-02-18T01:44:47.401Z,102237.58
2018-02-18T01:47:14.103Z,102238.63
2018-02-18T01:49:40.738Z,102240.52
2018-02-18T01:52:06.544Z,102244.23
2018-02-18T01:54:32.341Z,102244.58
2018-02-18T01:56:58.132Z,102252.81
2018-02-18T01:59:24.710Z,102251.12
2018-02-18T02:01:50.514Z,102249.32
2018-02-18T02:04:16.321Z,102254.58
2018-02-18T02:06:43.034Z,102255.72
2018-02-18T02:09:08.829Z,102256.03
2018-02-18T02:11:35.460Z,102253.31
2018-02-18T02:14:02.285Z,102249.09
2018-02-18T02:16:28.093Z,102255.15
2018-02-18T02:18:53.928Z,102261.33
2018-02-18T02:21:19.718Z,102262.56
2018-02-18T02:23:46.367Z,102263.64
2018-02-18T02:26:12.175Z,102261.81
2018-02-18T02:28:38.039Z,102265.62
2018-02-18T02:31:03.831Z,102267.98
2018-02-18T02:33:29.669Z,102275.28
2018-02-18T02:35:55.455Z,102272.43
2018-02-18T02:38:21.286Z,102282.27
2018-02-18T02:40:47.089Z,102274.16
2018-02-18T02:43:12.891Z,102279.09
2018-02-18T02:45:38.698Z,102280.05
2018-02-18T02:48:05.607Z,102288.34
2018-02-18T02:50:31.410Z,102285.88
2018-02-18T02:52:57.203Z,102287.87
2018-02-18T02:55:22.994Z,102282.22
2018-02-18T02:57:48.796Z,102286.02
2018-02-18T03:00:14.598Z,102283.26
2018-02-18T03:02:40.406Z,102277.78
2018-02-18T03:05:06.258Z,102283.98
2018-02-18T03:07:32.050Z,102292.67
2018-02-18T03:09:57.881Z,102294.13
2018-02-18T03:12:23.686Z,102289.00
2018-02-18T03:14:49.545Z,102289.30
2018-02-18T03:17:15.346Z,102295.59
2018-02-18T03:19:41.144Z,102292.92
2018-02-18T03:22:06.990Z,102297.24
2018-02-18T03:24:32.834Z,102293.96
2018-02-18T03:26:58.674Z,102297.97
2018-02-18T03:29:24.474Z,102292.70
2018-02-18T03:31:51.254Z,102292.84
2018-02-18T03:34:17.050Z,102287.81
2018-02-18T03:36:42.883Z,102288.03
2018-02-18T03:39:08.686Z,102285.66
2018-02-18T03:41:34.530Z,102288.27
2018-02-18T03:44:00.371Z,102287.23
2018-02-18T03:46:26.171Z,102286.70
2018-02-18T03:48:52.163Z,102287.95
2018-02-18T03:51:17.966Z,102289.86
2018-02-18T03:53:43.897Z,102291.16
2018-02-18T03:56:09.734Z,102295.30
2018-02-18T03:58:35.527Z,102292.97
2018-02-18T04:01:01.335Z,102284.16
2018-02-18T04:03:27.128Z,102290.86
2018-02-18T04:05:52.970Z,102293.20
2018-02-18T04:08:18.769Z,102285.68
2018-02-18T04:10:44.579Z,102290.66
2018-02-18T04:13:10.390Z,102291.20
2018-02-18T04:15:37.059Z,102295.11
2018-02-18T04:18:02.868Z,102294.25
2018-02-18T04:20:28.679Z,102302.11
2018-02-18T04:22:54.482Z,102298.22
2018-02-18T04:25:20.304Z,102296.08
2018-02-18T04:27:46.118Z,102298.94
2018-02-18T04:30:11.922Z,102304.42
2018-02-18T04:32:37.730Z,102302.32
2018-02-18T04:35:03.539Z,102309.36
2018-02-18T04:37:29.346Z,102309.83
2018-02-18T04:39:55.149Z,102309.07
2018-02-18T04:42:20.949Z,102308.30
2018-02-18T04:44:46.766Z,102303.52
2018-02-18T04:47:12.569Z,102299.55
2018-02-18T04:49:38.371Z,102303.52
2018-02-18T04:52:04.226Z,102312.77
2018-02-18T04:54:30.068Z,102310.59
2018-02-18T04:56:55.907Z,102318.34
2018-02-18T04:59:21.723Z,102316.07
2018-02-18T05:01:47.554Z,102325.36
2018-02-18T05:04:13.350Z,102324.84
2018-02-18T05:06:39.154Z,102331.84
2018-02-18T05:09:04.999Z,102335.24
2018-02-18T05:11:30.805Z,102332.62
2018-02-18T05:13:56.618Z,102335.92
2018-02-18T05:16:22.414Z,102339.54
2018-02-18T05:18:48.219Z,102343.95
2018-02-18T05:21:14.031Z,102347.42
2018-02-18T05:23:39.873Z,102354.28
2018-02-18T05:26:05.713Z,102351.75
2018-02-18T05:28:31.523Z,102354.60
2018-02-18T05:30:57.422Z,102355.98
2018-02-18T05:33:23.219Z,102349.59
2018-02-18T05:35:49.014Z,102360.74
2018-02-18T05:38:14.806Z,102362.19
2018-02-18T05:40:40.658Z,102366.45
2018-02-18T05:43:06.489Z,102362.80
2018-02-18T05:45:32.438Z,102374.66
2018-02-18T05:47:58.233Z,102375.09
2018-02-18T05:50:24.053Z,102376.25
2018-02-18T05:52:49.850Z,102387.30
2018-02-18T05:55:15.652Z,102385.95
2018-02-18T05:57:41.461Z,102384.21
2018-02-18T06:00:07.271Z,102378.17
2018-02-18T06:02:33.077Z,102382.67
2018-02-18T06:04:58.891Z,102384.90
2018-02-18T06:07:24.704Z,102383.80
2018-02-18T06:09:50.514Z,102389.46
2018-02-18T06:12:16.361Z,102394.80
2018-02-18T06:14:42.167Z,102398.06
2018-02-18T06:17:07.986Z,102401.44
2018-02-18T06:19:33.789Z,102407.50
2018-02-18T06:21:59.597Z,102404.59
2018-02-18T06:24:25.402Z,102410.09
2018-02-18T06:26:51.206Z,102412.20
2018-02-18T06:29:17.032Z,102413.22
2018-02-18T06:31:42.882Z,102420.56
2018-02-18T06:34:08.734Z,102417.34
2018-02-18T06:36:34.571Z,102419.87
2018-02-18T06:39:00.405Z,102418.38
2018-02-18T06:41:26.302Z,102417.31
2018-02-18T06:43:52.098Z,102422.53
2018-02-18T06:46:17.897Z,102426.70
2018-02-18T06:48:43.907Z,102426.16
2018-02-18T06:51:09.706Z,102429.63
2018-02-18T06:53:35.570Z,102434.47
2018-02-18T06:56:01.377Z,102431.03
2018-02-18T06:58:27.238Z,102428.55
2018-02-18T07:00:53.034Z,102434.50
2018-02-18T07:03:18.870Z,102432.44
2018-02-18T07:05:44.675Z,102436.29
2018-02-18T07:08:10.510Z,102435.48
2018-02-18T07:10:36.315Z,102445.80
2018-02-18T07:13:02.151Z,102448.18
2018-02-18T07:15:27.962Z,102443.67
2018-02-18T07:17:53.764Z,102451.84
2018-02-18T07:20:19.566Z,102446.90
2018-02-18T07:22:45.362Z,102446.94
2018-02-18T07:25:11.265Z,102441.30
2018-02-18T07:27:37.071Z,102452.98
2018-02-18T07:30:02.878Z,102450.34
2018-02-18T07:32:28.690Z,102452.48
2018-02-18T07:34:55.378Z,102444.03
2018-02-18T07:37:21.209Z,102440.09
2018-02-18T07:39:47.062Z,102443.67
2018-02-18T07:42:12.898Z,102447.47
2018-02-18T07:44:38.689Z,102443.84
2018-02-18T07:47:04.558Z,102447.66
2018-02-18T07:49:30.364Z,102445.95
2018-02-18T07:51:56.184Z,102449.11
2018-02-18T07:54:22.017Z,102452.66
2018-02-18T07:56:47.812Z,102446.77
2018-02-18T07:59:13.615Z,102446.58
2018-02-18T08:01:39.421Z,102446.84
2018-02-18T08:04:05.251Z,102443.32
2018-02-18T08:06:31.039Z,102448.58
2018-02-18T08:08:56.871Z,102451.00
2018-02-18T08:11:22.682Z,102448.26
2018-02-18T08:13:48.530Z,102446.55
2018-02-18T08:16:14.357Z,102452.27
2018-02-18T08:18:40.156Z,102454.11
2018-02-18T08:21:05.961Z,102462.56
2018-02-18T08:23:31.771Z,102459.46
2018-02-18T08:25:57.650Z,102454.94
2018-02-18T08:28:23.510Z,102452.07
2018-02-18T08:30:49.305Z,102453.18
2018-02-18T08:33:15.110Z,102460.26
2018-02-18T08:35:40.934Z,102460.61
2018-02-18T08:38:06.778Z,102460.59
2018-02-18T08:40:32.583Z,102464.84
2018-02-18T08:42:58.430Z,102458.45
2018-02-18T08:45:24.233Z,102457.20
2018-02-18T08:47:50.101Z,102455.16
2018-02-18T08:50:15.897Z,102454.20
2018-02-18T08:52:41.739Z,102459.59
2018-02-18T08:55:07.537Z,102457.42
2018-02-18T08:57:33.402Z,102455.36
2018-02-18T08:59:59.206Z,102456.98
2018-02-18T09:02:25.066Z,102452.12
2018-02-18T09:04:50.882Z,102462.28
2018-02-18T09:07:16.733Z,102455.88
2018-02-18T09:09:42.519Z,102449.61
2018-02-18T09:12:08.317Z,102458.77
2018-02-18T09:14:34.115Z,102461.00
2018-02-18T09:16:59.934Z,102457.27
2018-02-18T09:19:25.743Z,102461.78
2018-02-18T09:21:51.539Z,102459.53
2018-02-18T09:24:17.364Z,102466.75
2018-02-18T09:26:43.172Z,102471.16
2018-02-18T09:29:08.971Z,102473.94
2018-02-18T09:31:34.775Z,102473.59
2018-02-18T09:34:00.759Z,102474.67
2018-02-18T09:36:26.559Z,102476.19
2018-02-18T09:38:52.419Z,102480.05
2018-02-18T09:41:18.214Z,102472.55
2018-02-18T09:43:44.041Z,102478.91
2018-02-18T09:46:09.833Z,102478.14
2018-02-18T09:48:35.791Z,102479.69
2018-02-18T09:51:01.716Z,102483.65
2018-02-18T09:53:27.713Z,102477.45
2018-02-18T09:55:53.566Z,102480.87
2018-02-18T09:58:19.362Z,102478.42
2018-02-18T10:00:45.165Z,102482.51
2018-02-18T10:03:11.005Z,102478.45
2018-02-18T10:05:36.841Z,102479.95
2018-02-18T10:08:02.764Z,102480.30
2018-02-18T10:10:28.618Z,102480.38
2018-02-18T10:12:54.463Z,102484.55
2018-02-18T10:15:20.305Z,102485.09
2018-02-18T10:17:46.103Z,102489.12
2018-02-18T10:20:11.959Z,102480.63
2018-02-18T10:22:37.811Z,102487.70
2018-02-18T10:25:03.615Z,102492.81
2018-02-18T10:27:29.427Z,102488.86
2018-02-18T10:29:55.223Z,102486.05
2018-02-18T10:32:22.069Z,102494.47
2018-02-18T10:34:47.916Z,102489.94
2018-02-18T10:37:13.737Z,102485.55
2018-02-18T10:39:39.557Z,102491.14
2018-02-18T10:42:05.383Z,102497.24
2018-02-18T10:44:31.231Z,102494.27
2018-02-18T10:46:57.034Z,102495.08
2018-02-18T10:49:22.874Z,102491.84
2018-02-18T10:51:48.749Z,102490.13
2018-02-18T10:54:14.591Z,102494.42
2018-02-18T10:56:40.426Z,102494.80
2018-02-18T10:59:06.296Z,102497.89
2018-02-18T11:01:32.099Z,102501.19
2018-02-18T11:03:57.968Z,102493.55
2018-02-18T11:06:23.835Z,102493.07
2018-02-18T11:08:49.854Z,102496.20
2018-02-18T11:11:15.678Z,102497.20
2018-02-18T11:13:42.324Z,102494.15
2018-02-18T11:16:08.126Z,102491.84
2018-02-18T11:18:33.930Z,102489.81
2018-02-18T11:20:59.735Z,102484.21
2018-02-18T11:23:25.542Z,102484.64
2018-02-18T11:25:51.390Z,102474.59
2018-02-18T11:28:17.193Z,102477.84
2018-02-18T11:30:43.037Z,102474.27
2018-02-18T11:33:08.850Z,102473.27
2018-02-18T11:35:34.702Z,102476.38
2018-02-18T11:38:00.506Z,102476.01
2018-02-18T11:40:26.355Z,102476.52
2018-02-18T11:42:52.163Z,102476.63
2018-02-18T11:45:17.959Z,102473.52
2018-02-18T11:47:43.754Z,102474.30
2018-02-18T11:50:09.564Z,102471.56
2018-02-18T11:52:35.375Z,102467.52
2018-02-18T11:55:01.186Z,102475.92
2018-02-18T11:57:26.994Z,102469.80
2018-02-18T11:59:52.839Z,102467.15
2018-02-18T12:02:18.755Z,102469.55
2018-02-18T12:04:44.570Z,102476.46
2018-02-18T12:07:10.497Z,102466.22
2018-02-18T12:09:36.309Z,102471.66
2018-02-18T12:12:02.116Z,102466.44
2018-02-18T12:14:27.909Z,102468.31
2018-02-18T12:16:53.714Z,102469.39
2018-02-18T12:19:19.520Z,102465.95
2018-02-18T12:21:45.335Z,102468.62
2018-02-18T12:24:11.135Z,102467.34
2018-02-18T12:26:36.938Z,102464.31
2018-02-18T12:29:02.763Z,102462.78
2018-02-18T12:31:28.575Z,102456.37
2018-02-18T12:33:54.439Z,102458.37
2018-02-18T12:36:20.259Z,102457.98
2018-02-18T12:38:46.063Z,102454.14
2018-02-18T12:41:11.973Z,102454.20
2018-02-18T12:43:37.822Z,102443.92
2018-02-18T12:46:03.658Z,102444.06
2018-02-18T12:48:29.522Z,102439.52
2018-02-18T12:50:55.339Z,102441.25
2018-02-18T12:53:21.311Z,102436.10
2018-02-18T12:55:47.119Z,102434.66
2018-02-18T12:58:12.943Z,102432.17
2018-02-18T13:00:38.748Z,102428.67
2018-02-18T13:03:04.553Z,102436.10
2018-02-18T13:05:30.355Z,102432.29
2018-02-18T13:07:56.150Z,102425.16
2018-02-18T13:10:21.960Z,102427.95
2018-02-18T13:12:47.768Z,102425.38
2018-02-18T13:15:13.583Z,102426.50
2018-02-18T13:17:39.447Z,102428.06
2018-02-18T13:20:05.250Z,102422.23
2018-02-18T13:22:31.087Z,102427.61
2018-02-18T13:24:56.885Z,102418.62
2018-02-18T13:27:22.751Z,102419.34
2018-02-18T13:29:48.550Z,102414.59
2018-02-18T13:32:14.384Z,102413.39
2018-02-18T13:34:40.206Z,102415.91
2018-02-18T13:37:06.047Z,102416.84
2018-02-18T13:39:31.877Z,102411.73
2018-02-18T13:41:57.714Z,102414.09
2018-02-18T13:44:23.517Z,102412.51
2018-02-18T13:46:49.373Z,102406.67
2018-02-18T13:49:15.166Z,102409.84
2018-02-18T13:51:41.011Z,102401.91
2018-02-18T13:54:06.802Z,102398.16
2018-02-18T13:56:32.586Z,102395.48
2018-02-18T13:58:58.422Z,102399.70
2018-02-18T14:01:24.297Z,102398.51
2018-02-18T14:03:50.188Z,102392.84
2018-02-18T14:06:15.983Z,102389.64
2018-02-18T14:08:41.815Z,102389.75
2018-02-18T14:11:07.666Z,102388.86
2018-02-18T14:13:33.471Z,102383.72
2018-02-18T14:16:00.139Z,102378.27
2018-02-18T14:18:25.947Z,102374.09
2018-02-18T14:20:51.754Z,102372.54
2018-02-18T14:23:17.571Z,102373.27
2018-02-18T14:25:43.458Z,102374.23
2018-02-18T14:28:09.258Z,102373.63
2018-02-18T14:30:35.072Z,102382.63
2018-02-18T14:33:00.866Z,102388.63
2018-02-18T14:35:26.671Z,102388.75
2018-02-18T14:37:52.475Z,102381.98
2018-02-18T14:40:18.276Z,102382.17
2018-02-18T14:42:50.270Z,102376.91
2018-02-18T14:45:22.324Z,102378.96
2018-02-18T14:47:54.118Z,102372.87
2018-02-18T14:50:26.020Z,102371.65
2018-02-18T14:55:53.234Z,102360.73
2018-02-18T14:58:19.066Z,102363.56
2018-02-18T15:00:44.854Z,102361.88
2018-02-18T15:03:10.650Z,102365.15
2018-02-18T15:05:36.453Z,102364.33
2018-02-18T15:08:02.251Z,102364.13
2018-02-18T15:10:28.251Z,102370.14
2018-02-18T15:12:54.051Z,102365.48
2018-02-18T15:15:19.878Z,102364.52
2018-02-18T15:17:46.634Z,102366.66
2018-02-18T15:20:12.448Z,102362.94
2018-02-18T15:22:38.250Z,102362.20
2018-02-18T15:25:04.141Z,102367.52
2018-02-18T15:27:29.940Z,102365.81
2018-02-18T15:29:55.733Z,102367.74
2018-02-18T15:32:21.535Z,102364.25
2018-02-18T15:34:47.335Z,102360.93
2018-02-18T15:37:13.123Z,102362.39
2018-02-18T15:39:38.921Z,102356.63
2018-02-18T15:42:04.722Z,102354.61
2018-02-18T15:44:30.510Z,102352.68
2018-02-18T15:46:56.400Z,102354.87
2018-02-18T15:49:22.206Z,102354.16
2018-02-18T15:51:48.042Z,102352.83
2018-02-18T15:54:13.831Z,102354.03
2018-02-18T15:56:39.668Z,102360.13
2018-02-18T15:59:05.499Z,102357.39
2018-02-18T16:01:31.296Z,102362.31
2018-02-18T16:03:57.137Z,102359.58
2018-02-18T16:06:22.975Z,102354.50
2018-02-18T16:08:48.756Z,102361.16
2018-02-18T16:11:14.613Z,102359.80
2018-02-18T16:13:40.415Z,102360.44
2018-02-18T16:16:06.263Z,102353.95
2018-02-18T16:18:32.084Z,102358.63
2018-02-18T16:20:57.914Z,102358.95
2018-02-18T16:23:23.708Z,102357.24
2018-02-18T16:25:49.574Z,102354.30
2018-02-18T16:28:15.597Z,102356.52
2018-02-18T16:30:41.386Z,102349.78
2018-02-18T16:33:07.363Z,102353.92
2018-02-18T16:35:33.158Z,102357.52
2018-02-18T16:37:58.998Z,102355.94
2018-02-18T16:40:24.831Z,102355.19
2018-02-18T16:42:50.653Z,102360.57
2018-02-18T16:45:16.451Z,102357.16
2018-02-18T16:47:42.272Z,102361.15
2018-02-18T16:50:08.110Z,102352.02
2018-02-18T16:52:33.907Z,102348.74
2018-02-18T16:54:59.740Z,102354.63
2018-02-18T16:57:25.649Z,102350.80
2018-02-18T16:59:51.468Z,102357.30
2018-02-18T17:02:17.259Z,102356.37
2018-02-18T17:04:43.115Z,102356.98
2018-02-18T17:07:08.909Z,102349.02
2018-02-18T17:09:34.730Z,102341.35
2018-02-18T17:12:00.522Z,102342.63
2018-02-18T17:14:26.367Z,102333.81
2018-02-18T17:16:52.278Z,102333.89
2018-02-18T17:19:18.999Z,102336.33
2018-02-18T17:21:44.871Z,102334.27
2018-02-18T17:24:10.678Z,102337.75
2018-02-18T17:26:36.505Z,102328.16
2018-02-18T17:29:02.293Z,102328.75
2018-02-18T17:31:28.090Z,102324.41
2018-02-18T17:33:53.887Z,102329.28
2018-02-18T17:36:19.681Z,102320.12
2018-02-18T17:38:46.326Z,102312.61
2018-02-18T17:41:12.315Z,102309.90
2018-02-18T17:43:38.274Z,102311.72
2018-02-18T17:46:04.058Z,102302.89
2018-02-18T17:48:29.890Z,102306.02
2018-02-18T17:50:55.677Z,102308.19
2018-02-18T17:53:22.341Z,102310.23
2018-02-18T17:55:49.013Z,102313.72
2018-02-18T17:58:14.799Z,102307.59
2018-02-18T18:00:40.630Z,102313.83
2018-02-18T18:03:06.421Z,102314.36
2018-02-18T18:05:32.242Z,102318.06
2018-02-18T18:07:58.033Z,102317.75
2018-02-18T18:10:23.870Z,102321.12
2018-02-18T18:12:49.670Z,102322.22
2018-02-18T18:15:15.458Z,102315.86
2018-02-18T18:17:41.265Z,102321.42
2018-02-18T18:20:07.055Z,102321.03
2018-02-18T18:22:32.856Z,102321.98
2018-02-18T18:24:58.667Z,102316.09
2018-02-18T18:27:24.520Z,102306.78
2018-02-18T18:29:50.351Z,102303.37
2018-02-18T18:32:16.159Z,102300.02
2018-02-18T18:34:41.946Z,102301.13
2018-02-18T18:37:07.794Z,102302.91
2018-02-18T18:39:33.592Z,102303.93
2018-02-18T18:41:59.404Z,102298.36
2018-02-18T18:44:25.212Z,102300.75
2018-02-18T18:46:51.074Z,102295.91
2018-02-18T18:49:16.864Z,102293.91
2018-02-18T18:51:42.666Z,102300.27
2018-02-18T18:54:08.460Z,102296.28
2018-02-18T18:56:34.287Z,102291.80
2018-02-18T18:59:00.092Z,102300.75
2018-02-18T19:01:26.444Z,102293.04
2018-02-18T19:03:52.239Z,102298.41
2018-02-18T19:06:18.071Z,102291.02
2018-02-18T19:08:43.991Z,102291.51
2018-02-18T19:11:09.921Z,102294.78
2018-02-18T19:13:35.721Z,102292.03
2018-02-18T19:16:01.570Z,102292.69
2018-02-18T19:18:27.368Z,102293.36
2018-02-18T19:20:53.159Z,102292.15
2018-02-18T19:23:18.992Z,102294.94
2018-02-18T19:25:44.831Z,102289.59
2018-02-18T19:28:10.651Z,102294.36
2018-02-18T19:30:37.423Z,102293.28
2018-02-18T19:33:03.251Z,102289.08
2018-02-18T19:35:29.078Z,102294.92
2018-02-18T19:37:54.876Z,102291.37
2018-02-18T19:40:20.710Z,102288.27
2018-02-18T19:42:46.501Z,102288.67
2018-02-18T19:45:12.335Z,102289.45
2018-02-18T19:47:38.139Z,102295.48
2018-02-18T19:50:03.990Z,102297.27
2018-02-18T19:52:30.808Z,102290.23
2018-02-18T19:54:56.655Z,102284.95
2018-02-18T19:57:22.517Z,102285.36
2018-02-18T19:59:48.387Z,102289.54
2018-02-18T20:02:14.227Z,102282.14
2018-02-18T20:04:40.034Z,102282.10
2018-02-18T20:07:06.075Z,102276.53
2018-02-18T20:09:31.878Z,102275.46
2018-02-18T20:11:57.704Z,102273.98
2018-02-18T20:14:23.501Z,102270.06
2018-02-18T20:16:49.341Z,102276.27
2018-02-18T20:19:15.210Z,102277.27
2018-02-18T20:21:41.289Z,102273.34
2018-02-18T20:24:07.162Z,102277.47
2018-02-18T20:26:33.016Z,102277.24
2018-02-18T20:28:58.851Z,102271.52
2018-02-18T20:31:24.763Z,102275.80
2018-02-18T20:33:50.563Z,102274.66
2018-02-18T20:36:16.470Z,102270.75
2018-02-18T20:38:42.271Z,102271.85
2018-02-18T20:41:08.092Z,102270.08
2018-02-18T20:43:33.887Z,102267.99
2018-02-18T20:45:59.856Z,102272.88
2018-02-18T20:48:25.777Z,102276.10
2018-02-18T20:50:51.716Z,102273.41
2018-02-18T20:53:17.507Z,102268.61
2018-02-18T20:55:43.476Z,102273.37
2018-02-18T20:58:09.318Z,102269.57
2018-02-18T21:00:36.215Z,102265.10
2018-02-18T21:03:02.007Z,102265.23
2018-02-18T21:05:27.802Z,102266.59
2018-02-18T21:07:53.595Z,102265.39
2018-02-18T21:10:19.390Z,102261.75
2018-02-18T21:12:45.295Z,102258.43
2018-02-18T21:15:11.078Z,102256.48
2018-02-18T21:17:36.876Z,102258.19
2018-02-18T21:20:02.687Z,102260.05
2018-02-18T21:22:28.527Z,102259.47
2018-02-18T21:24:54.317Z,102250.92
2018-02-18T21:27:20.112Z,102255.14
2018-02-18T21:29:46.573Z,102256.38
2018-02-18T21:32:12.415Z,102254.07
2018-02-18T21:34:38.211Z,102254.73
2018-02-18T21:37:04.003Z,102254.03
2018-02-18T21:39:29.798Z,102249.00
2018-02-18T21:41:56.677Z,102255.20
2018-02-18T21:44:22.514Z,102246.47
2018-02-18T21:46:48.518Z,102248.25
2018-02-18T21:49:14.306Z,102241.05
2018-02-18T21:51:40.112Z,102240.84
2018-02-18T21:54:06.082Z,102239.78
2018-02-18T21:56:31.880Z,102237.74
2018-02-18T21:58:57.676Z,102232.16
2018-02-18T22:01:23.507Z,102235.15
2018-02-18T22:03:49.339Z,102240.63
2018-02-18T22:06:15.126Z,102230.32
2018-02-18T22:08:40.966Z,102227.77
2018-02-18T22:11:06.771Z,102234.42
2018-02-18T22:13:32.558Z,102229.47
2018-02-18T22:15:58.452Z,102222.25
2018-02-18T22:18:24.246Z,102220.41
2018-02-18T22:20:50.035Z,102213.41
2018-02-18T22:23:15.840Z,102219.06
2018-02-18T22:25:41.638Z,102215.06
2018-02-18T22:28:07.551Z,102205.77
2018-02-18T22:30:33.379Z,102211.46
2018-02-18T22:32:59.297Z,102206.03
2018-02-18T22:35:25.100Z,102206.96
2018-02-18T22:37:50.891Z,102203.18
2018-02-18T22:40:16.686Z,102200.51
2018-02-18T22:42:42.488Z,102201.05
2018-02-18T22:45:08.279Z,102197.11
2018-02-18T22:47:34.142Z,102198.38
2018-02-18T22:49:59.935Z,102192.78
2018-02-18T22:52:25.800Z,102189.70
2018-02-18T22:54:51.663Z,102188.32
2018-02-18T22:57:17.493Z,102182.09
2018-02-18T22:59:43.291Z,102172.45
2018-02-18T23:02:09.111Z,102177.42
2018-02-18T23:04:34.974Z,102170.93
2018-02-18T23:07:06.600Z,102168.47
2018-02-18T23:09:32.418Z,102163.03
2018-02-18T23:11:58.203Z,102168.16
2018-02-18T23:14:24.039Z,102164.21
2018-02-18T23:16:49.838Z,102152.50
2018-02-18T23:19:15.632Z,102148.27
2018-02-18T23:21:41.453Z,102152.93
2018-02-18T23:24:07.233Z,102143.51
2018-02-18T23:26:33.053Z,102139.95
2018-02-18T23:28:58.841Z,102137.14
2018-02-18T23:31:24.700Z,102138.33
2018-02-18T23:33:50.493Z,102134.08
2018-02-18T23:36:16.287Z,102125.77
2018-02-18T23:38:42.310Z,102123.64
2018-02-18T23:41:08.178Z,102112.96
2018-02-18T23:43:33.971Z,102121.87
2018-02-18T23:45:59.763Z,102118.26
2018-02-18T23:48:25.587Z,102121.73
2018-02-18T23:50:51.421Z,102116.19
2018-02-18T23:53:17.410Z,102119.28
2018-02-18T23:55:44.375Z,102110.20
2018-02-18T23:58:10.213Z,102109.05
